Aviation Digital Data Service (ADDS)

Output produced by METARs form (0105 UTC 19 August 2019)
found at http://www.aviationweather.gov/metar/data/
 
METAR text: ETNW 190020Z AUTO 20006KT 8000 // ////// 15/14 Q1010 ///
Conditions at: ETNW (WUNSTORF (GER-AF, DE) observed 0020 UTC 19 August 2019
Temperature: 15.0°C (59°F)
Dewpoint: 14.0°C (57°F) [RH = 94%]
Pressure (altimeter): 29.82 inches Hg (1010.0 mb)
Winds: from the SSW (200 degrees) at 7 MPH (6 knots; 3.1 m/s)
Visibility: 5 miles ( 8 km)
Ceiling: unknown
Clouds: missing
Weather: no significant weather observed at this time

METAR text: ETNW 182320Z AUTO 21006KT 7000 // ////// 15/14 Q1010 ///
Conditions at: ETNW (WUNSTORF (GER-AF, DE) observed 2320 UTC 18 August 2019
Temperature: 15.0°C (59°F)
Dewpoint: 14.0°C (57°F) [RH = 94%]
Pressure (altimeter): 29.82 inches Hg (1010.0 mb)
Winds: from the SSW (210 degrees) at 7 MPH (6 knots; 3.1 m/s)
Visibility: 4 miles ( 7 km)
Ceiling: unknown
Clouds: missing
Weather: no significant weather observed at this time

METAR text: ETNW 182220Z AUTO 24006KT 8000 // ////// 15/15 Q1009 ///
Conditions at: ETNW (WUNSTORF (GER-AF, DE) observed 2220 UTC 18 August 2019
Temperature: 15.0°C (59°F)
Dewpoint: 15.0°C (59°F) [RH = 100%]
Pressure (altimeter): 29.79 inches Hg (1009.0 mb)
Winds: from the WSW (240 degrees) at 7 MPH (6 knots; 3.1 m/s)
Visibility: 5 miles ( 8 km)
Ceiling: unknown
Clouds: missing
Weather: no significant weather observed at this time

METAR text: ETNW 182120Z AUTO 22005KT 8000 // ////// 16/15 Q1009 ///
Conditions at: ETNW (WUNSTORF (GER-AF, DE) observed 2120 UTC 18 August 2019
Temperature: 16.0°C (61°F)
Dewpoint: 15.0°C (59°F) [RH = 94%]
Pressure (altimeter): 29.79 inches Hg (1009.0 mb)
Winds: from the SW (220 degrees) at 6 MPH (5 knots; 2.6 m/s)
Visibility: 5 miles ( 8 km)
Ceiling: unknown
Clouds: missing
Weather: no significant weather observed at this time

METAR text: ETNW 182020Z AUTO 27005KT 9000 // ////// 16/15 Q1009 ///
Conditions at: ETNW (WUNSTORF (GER-AF, DE) observed 2020 UTC 18 August 2019
Temperature: 16.0°C (61°F)
Dewpoint: 15.0°C (59°F) [RH = 94%]
Pressure (altimeter): 29.79 inches Hg (1009.0 mb)
Winds: from the W (270 degrees) at 6 MPH (5 knots; 2.6 m/s)
Visibility: 6 miles ( 9 km)
Ceiling: unknown
Clouds: missing
Weather: no significant weather observed at this time

METAR text: ETNW 181920Z AUTO 25004KT 9999 // ////// 16/15 Q1009 ///
Conditions at: ETNW (WUNSTORF (GER-AF, DE) observed 1920 UTC 18 August 2019
Temperature: 16.0°C (61°F)
Dewpoint: 15.0°C (59°F) [RH = 94%]
Pressure (altimeter): 29.79 inches Hg (1009.0 mb)
Winds: from the WSW (250 degrees) at 5 MPH (4 knots; 2.1 m/s)
Visibility: 6 or more miles (10+ km)
Ceiling: unknown
Clouds: missing
Weather: no significant weather observed at this time

METAR text: ETNW 181820Z AUTO 29006KT 9999 // ////// 17/16 Q1008 ///
Conditions at: ETNW (WUNSTORF (GER-AF, DE) observed 1820 UTC 18 August 2019
Temperature: 17.0°C (63°F)
Dewpoint: 16.0°C (61°F) [RH = 94%]
Pressure (altimeter): 29.76 inches Hg (1008.0 mb)
Winds: from the WNW (290 degrees) at 7 MPH (6 knots; 3.1 m/s)
Visibility: 6 or more miles (10+ km)
Ceiling: unknown
Clouds: missing
Weather: no significant weather observed at this time

METAR text: ETNW 181720Z AUTO 30008KT 9999 // ////// 17/16 Q1007 ///
Conditions at: ETNW (WUNSTORF (GER-AF, DE) observed 1720 UTC 18 August 2019
Temperature: 17.0°C (63°F)
Dewpoint: 16.0°C (61°F) [RH = 94%]
Pressure (altimeter): 29.73 inches Hg (1007.0 mb)
Winds: from the WNW (300 degrees) at 9 MPH (8 knots; 4.1 m/s)
Visibility: 6 or more miles (10+ km)
Ceiling: unknown
Clouds: missing
Weather: no significant weather observed at this time

METAR text: ETNW 181620Z AUTO 29009KT 9999 // ////// 18/16 Q1006 ///
Conditions at: ETNW (WUNSTORF (GER-AF, DE) observed 1620 UTC 18 August 2019
Temperature: 18.0°C (64°F)
Dewpoint: 16.0°C (61°F) [RH = 88%]
Pressure (altimeter): 29.70 inches Hg (1006.0 mb)
Winds: from the WNW (290 degrees) at 10 MPH (9 knots; 4.6 m/s)
Visibility: 6 or more miles (10+ km)
Ceiling: unknown
Clouds: missing
Weather: no significant weather observed at this time

METAR text: ETNW 181520Z AUTO 28006KT 9999 // ////// 18/16 Q1005 ///
Conditions at: ETNW (WUNSTORF (GER-AF, DE) observed 1520 UTC 18 August 2019
Temperature: 18.0°C (64°F)
Dewpoint: 16.0°C (61°F) [RH = 88%]
Pressure (altimeter): 29.68 inches Hg (1005.0 mb)
Winds: from the W (280 degrees) at 7 MPH (6 knots; 3.1 m/s)
Visibility: 6 or more miles (10+ km)
Ceiling: unknown
Clouds: missing
Weather: no significant weather observed at this time

METAR text: ETNW 181420Z AUTO VRB03KT 9999 // ////// 17/16 Q1005 ///
Conditions at: ETNW (WUNSTORF (GER-AF, DE) observed 1420 UTC 18 August 2019
Temperature: 17.0°C (63°F)
Dewpoint: 16.0°C (61°F) [RH = 94%]
Pressure (altimeter): 29.68 inches Hg (1005.0 mb)
Winds: variable direction winds at 3 MPH (3 knots; 1.5 m/s)
Visibility: 6 or more miles (10+ km)
Ceiling: unknown
Clouds: missing
Weather: no significant weather observed at this time

METAR text: ETNW 181320Z AUTO 06002KT 9999 // ////// 16/16 Q1004 ///
Conditions at: ETNW (WUNSTORF (GER-AF, DE) observed 1320 UTC 18 August 2019
Temperature: 16.0°C (61°F)
Dewpoint: 16.0°C (61°F) [RH = 100%]
Pressure (altimeter): 29.65 inches Hg (1004.0 mb)
Winds: from the ENE (60 degrees) at 2 MPH (2 knots; 1.0 m/s)
Visibility: 6 or more miles (10+ km)
Ceiling: unknown
Clouds: missing
Weather: no significant weather observed at this time

METAR text: ETNW 181220Z AUTO 01002KT 6000 // ////// 16/15 Q1004 ///
Conditions at: ETNW (WUNSTORF (GER-AF, DE) observed 1220 UTC 18 August 2019
Temperature: 16.0°C (61°F)
Dewpoint: 15.0°C (59°F) [RH = 94%]
Pressure (altimeter): 29.65 inches Hg (1004.0 mb)
Winds: from the N (10 degrees) at 2 MPH (2 knots; 1.0 m/s)
Visibility: 4 miles ( 6 km)
Ceiling: unknown
Clouds: missing
Weather: no significant weather observed at this time

METAR text: ETNW 181120Z AUTO 27004KT 2300 // ////// 16/15 Q1005 ///
Conditions at: ETNW (WUNSTORF (GER-AF, DE) observed 1120 UTC 18 August 2019
Temperature: 16.0°C (61°F)
Dewpoint: 15.0°C (59°F) [RH = 94%]
Pressure (altimeter): 29.68 inches Hg (1005.0 mb)
Winds: from the W (270 degrees) at 5 MPH (4 knots; 2.1 m/s)
Visibility: 1.43 miles (2.30 km)
Ceiling: unknown
Clouds: missing
Weather: no significant weather observed at this time

METAR text: ETNW 181020Z AUTO 23007KT 9999 // ////// 18/14 Q1005 ///
Conditions at: ETNW (WUNSTORF (GER-AF, DE) observed 1020 UTC 18 August 2019
Temperature: 18.0°C (64°F)
Dewpoint: 14.0°C (57°F) [RH = 77%]
Pressure (altimeter): 29.68 inches Hg (1005.0 mb)
Winds: from the SW (230 degrees) at 8 MPH (7 knots; 3.6 m/s)
Visibility: 6 or more miles (10+ km)
Ceiling: unknown
Clouds: missing
Weather: no significant weather observed at this time

METAR text: ETNW 180920Z AUTO 25008KT 9999 // ////// 17/16 Q1005 ///
Conditions at: ETNW (WUNSTORF (GER-AF, DE) observed 0920 UTC 18 August 2019
Temperature: 17.0°C (63°F)
Dewpoint: 16.0°C (61°F) [RH = 94%]
Pressure (altimeter): 29.68 inches Hg (1005.0 mb)
Winds: from the WSW (250 degrees) at 9 MPH (8 knots; 4.1 m/s)
Visibility: 6 or more miles (10+ km)
Ceiling: unknown
Clouds: missing
Weather: no significant weather observed at this time

METAR text: ETNW 180820Z AUTO 27007KT 4700 // ////// 17/16 Q1006 ///
Conditions at: ETNW (WUNSTORF (GER-AF, DE) observed 0820 UTC 18 August 2019
Temperature: 17.0°C (63°F)
Dewpoint: 16.0°C (61°F) [RH = 94%]
Pressure (altimeter): 29.70 inches Hg (1006.0 mb)
Winds: from the W (270 degrees) at 8 MPH (7 knots; 3.6 m/s)
Visibility: 2.92 miles (4.70 km)
Ceiling: unknown
Clouds: missing
Weather: no significant weather observed at this time

METAR text: ETNW 180720Z AUTO 20010KT 9999 // ////// 19/17 Q1005 ///
Conditions at: ETNW (WUNSTORF (GER-AF, DE) observed 0720 UTC 18 August 2019
Temperature: 19.0°C (66°F)
Dewpoint: 17.0°C (63°F) [RH = 88%]
Pressure (altimeter): 29.68 inches Hg (1005.0 mb)
Winds: from the SSW (200 degrees) at 12 MPH (10 knots; 5.1 m/s)
Visibility: 6 or more miles (10+ km)
Ceiling: unknown
Clouds: missing
Weather: no significant weather observed at this time

METAR text: ETNW 180620Z AUTO 17005KT 9999 // ////// 18/17 Q1005 ///
Conditions at: ETNW (WUNSTORF (GER-AF, DE) observed 0620 UTC 18 August 2019
Temperature: 18.0°C (64°F)
Dewpoint: 17.0°C (63°F) [RH = 94%]
Pressure (altimeter): 29.68 inches Hg (1005.0 mb)
Winds: from the S (170 degrees) at 6 MPH (5 knots; 2.6 m/s)
Visibility: 6 or more miles (10+ km)
Ceiling: unknown
Clouds: missing
Weather: no significant weather observed at this time

METAR text: ETNW 180520Z AUTO 00000KT 9999 // ////// 18/17 Q1006 ///
Conditions at: ETNW (WUNSTORF (GER-AF, DE) observed 0520 UTC 18 August 2019
Temperature: 18.0°C (64°F)
Dewpoint: 17.0°C (63°F) [RH = 94%]
Pressure (altimeter): 29.70 inches Hg (1006.0 mb)
Winds: calm
Visibility: 6 or more miles (10+ km)
Ceiling: unknown
Clouds: missing
Weather: no significant weather observed at this time

METAR text: ETNW 180420Z AUTO 26002KT 9999 // ////// 19/17 Q1006 ///
Conditions at: ETNW (WUNSTORF (GER-AF, DE) observed 0420 UTC 18 August 2019
Temperature: 19.0°C (66°F)
Dewpoint: 17.0°C (63°F) [RH = 88%]
Pressure (altimeter): 29.70 inches Hg (1006.0 mb)
Winds: from the W (260 degrees) at 2 MPH (2 knots; 1.0 m/s)
Visibility: 6 or more miles (10+ km)
Ceiling: unknown
Clouds: missing
Weather: no significant weather observed at this time

METAR text: ETNW 180320Z AUTO 23007KT 9999 // ////// 19/16 Q1006 ///
Conditions at: ETNW (WUNSTORF (GER-AF, DE) observed 0320 UTC 18 August 2019
Temperature: 19.0°C (66°F)
Dewpoint: 16.0°C (61°F) [RH = 83%]
Pressure (altimeter): 29.70 inches Hg (1006.0 mb)
Winds: from the SW (230 degrees) at 8 MPH (7 knots; 3.6 m/s)
Visibility: 6 or more miles (10+ km)
Ceiling: unknown
Clouds: missing
Weather: no significant weather observed at this time

METAR text: ETNW 180220Z AUTO 21007KT 9999 // ////// 19/16 Q1006 ///
Conditions at: ETNW (WUNSTORF (GER-AF, DE) observed 0220 UTC 18 August 2019
Temperature: 19.0°C (66°F)
Dewpoint: 16.0°C (61°F) [RH = 83%]
Pressure (altimeter): 29.70 inches Hg (1006.0 mb)
Winds: from the SSW (210 degrees) at 8 MPH (7 knots; 3.6 m/s)
Visibility: 6 or more miles (10+ km)
Ceiling: unknown
Clouds: missing
Weather: no significant weather observed at this time

METAR text: ETNW 180120Z AUTO 22007KT 9999 // ////// 19/16 Q1006 ///
Conditions at: ETNW (WUNSTORF (GER-AF, DE) observed 0120 UTC 18 August 2019
Temperature: 19.0°C (66°F)
Dewpoint: 16.0°C (61°F) [RH = 83%]
Pressure (altimeter): 29.70 inches Hg (1006.0 mb)
Winds: from the SW (220 degrees) at 8 MPH (7 knots; 3.6 m/s)
Visibility: 6 or more miles (10+ km)
Ceiling: unknown
Clouds: missing
Weather: no significant weather observed at this time

METAR text: ETNW 180020Z AUTO 22008KT 9999 // ////// 19/16 Q1007 ///
Conditions at: ETNW (WUNSTORF (GER-AF, DE) observed 0020 UTC 18 August 2019
Temperature: 19.0°C (66°F)
Dewpoint: 16.0°C (61°F) [RH = 83%]
Pressure (altimeter): 29.73 inches Hg (1007.0 mb)
Winds: from the SW (220 degrees) at 9 MPH (8 knots; 4.1 m/s)
Visibility: 6 or more miles (10+ km)
Ceiling: unknown
Clouds: missing
Weather: no significant weather observed at this time

METAR text: ETNW 172320Z AUTO 21006KT 9999 // ////// 19/16 Q1007 ///
Conditions at: ETNW (WUNSTORF (GER-AF, DE) observed 2320 UTC 17 August 2019
Temperature: 19.0°C (66°F)
Dewpoint: 16.0°C (61°F) [RH = 83%]
Pressure (altimeter): 29.73 inches Hg (1007.0 mb)
Winds: from the SSW (210 degrees) at 7 MPH (6 knots; 3.1 m/s)
Visibility: 6 or more miles (10+ km)
Ceiling: unknown
Clouds: missing
Weather: no significant weather observed at this time

METAR text: ETNW 172220Z AUTO 23007KT 9999 // ////// 20/16 Q1007 ///
Conditions at: ETNW (WUNSTORF (GER-AF, DE) observed 2220 UTC 17 August 2019
Temperature: 20.0°C (68°F)
Dewpoint: 16.0°C (61°F) [RH = 78%]
Pressure (altimeter): 29.73 inches Hg (1007.0 mb)
Winds: from the SW (230 degrees) at 8 MPH (7 knots; 3.6 m/s)
Visibility: 6 or more miles (10+ km)
Ceiling: unknown
Clouds: missing
Weather: no significant weather observed at this time

METAR text: ETNW 172120Z AUTO 21007KT 9999 // ////// 19/17 Q1007 ///
Conditions at: ETNW (WUNSTORF (GER-AF, DE) observed 2120 UTC 17 August 2019
Temperature: 19.0°C (66°F)
Dewpoint: 17.0°C (63°F) [RH = 88%]
Pressure (altimeter): 29.73 inches Hg (1007.0 mb)
Winds: from the SSW (210 degrees) at 8 MPH (7 knots; 3.6 m/s)
Visibility: 6 or more miles (10+ km)
Ceiling: unknown
Clouds: missing
Weather: no significant weather observed at this time

METAR text: ETNW 172020Z AUTO 22008KT 9999 // ////// 19/17 Q1008 ///
Conditions at: ETNW (WUNSTORF (GER-AF, DE) observed 2020 UTC 17 August 2019
Temperature: 19.0°C (66°F)
Dewpoint: 17.0°C (63°F) [RH = 88%]
Pressure (altimeter): 29.76 inches Hg (1008.0 mb)
Winds: from the SW (220 degrees) at 9 MPH (8 knots; 4.1 m/s)
Visibility: 6 or more miles (10+ km)
Ceiling: unknown
Clouds: missing
Weather: no significant weather observed at this time

METAR text: ETNW 171920Z AUTO 23012KT 6000 // ////// 19/17 Q1008 ///
Conditions at: ETNW (WUNSTORF (GER-AF, DE) observed 1920 UTC 17 August 2019
Temperature: 19.0°C (66°F)
Dewpoint: 17.0°C (63°F) [RH = 88%]
Pressure (altimeter): 29.76 inches Hg (1008.0 mb)
Winds: from the SW (230 degrees) at 14 MPH (12 knots; 6.2 m/s)
Visibility: 4 miles ( 6 km)
Ceiling: unknown
Clouds: missing
Weather: no significant weather observed at this time

METAR text: ETNW 171820Z AUTO 22003KT 9999 // ////// 21/16 Q1007 ///
Conditions at: ETNW (WUNSTORF (GER-AF, DE) observed 1820 UTC 17 August 2019
Temperature: 21.0°C (70°F)
Dewpoint: 16.0°C (61°F) [RH = 73%]
Pressure (altimeter): 29.73 inches Hg (1007.0 mb)
Winds: from the SW (220 degrees) at 3 MPH (3 knots; 1.5 m/s)
Visibility: 6 or more miles (10+ km)
Ceiling: unknown
Clouds: missing
Weather: no significant weather observed at this time

METAR text: ETNW 171720Z AUTO 29003KT 9999 // ////// 21/16 Q1008 ///
Conditions at: ETNW (WUNSTORF (GER-AF, DE) observed 1720 UTC 17 August 2019
Temperature: 21.0°C (70°F)
Dewpoint: 16.0°C (61°F) [RH = 73%]
Pressure (altimeter): 29.76 inches Hg (1008.0 mb)
Winds: from the WNW (290 degrees) at 3 MPH (3 knots; 1.5 m/s)
Visibility: 6 or more miles (10+ km)
Ceiling: unknown
Clouds: missing
Weather: no significant weather observed at this time

METAR text: ETNW 171620Z AUTO 28008KT 9999 // ////// 22/15 Q1008 ///
Conditions at: ETNW (WUNSTORF (GER-AF, DE) observed 1620 UTC 17 August 2019
Temperature: 22.0°C (72°F)
Dewpoint: 15.0°C (59°F) [RH = 65%]
Pressure (altimeter): 29.76 inches Hg (1008.0 mb)
Winds: from the W (280 degrees) at 9 MPH (8 knots; 4.1 m/s)
Visibility: 6 or more miles (10+ km)
Ceiling: unknown
Clouds: missing
Weather: no significant weather observed at this time

METAR text: ETNW 171520Z AUTO 25011KT 9999 // ////// 23/14 Q1007 ///
Conditions at: ETNW (WUNSTORF (GER-AF, DE) observed 1520 UTC 17 August 2019
Temperature: 23.0°C (73°F)
Dewpoint: 14.0°C (57°F) [RH = 57%]
Pressure (altimeter): 29.73 inches Hg (1007.0 mb)
Winds: from the WSW (250 degrees) at 13 MPH (11 knots; 5.7 m/s)
Visibility: 6 or more miles (10+ km)
Ceiling: unknown
Clouds: missing
Weather: no significant weather observed at this time

METAR text: ETNW 171420Z AUTO 26012KT 9999 // ////// 23/13 Q1007 ///
Conditions at: ETNW (WUNSTORF (GER-AF, DE) observed 1420 UTC 17 August 2019
Temperature: 23.0°C (73°F)
Dewpoint: 13.0°C (55°F) [RH = 53%]
Pressure (altimeter): 29.73 inches Hg (1007.0 mb)
Winds: from the W (260 degrees) at 14 MPH (12 knots; 6.2 m/s)
Visibility: 6 or more miles (10+ km)
Ceiling: unknown
Clouds: missing
Weather: no significant weather observed at this time

METAR text: ETNW 171320Z AUTO 25011KT 9999 // ////// 23/13 Q1007 ///
Conditions at: ETNW (WUNSTORF (GER-AF, DE) observed 1320 UTC 17 August 2019
Temperature: 23.0°C (73°F)
Dewpoint: 13.0°C (55°F) [RH = 53%]
Pressure (altimeter): 29.73 inches Hg (1007.0 mb)
Winds: from the WSW (250 degrees) at 13 MPH (11 knots; 5.7 m/s)
Visibility: 6 or more miles (10+ km)
Ceiling: unknown
Clouds: missing
Weather: no significant weather observed at this time

Forecast for: ETNW (WUNSTORF (GER-AF, DE)
Text: TAF ETNW 182212Z 1823/1923 24010KT 9999 NSW FEW015 SCT030 BKN250
Forecast period: 2300 UTC 18 August 2019 to 2300 UTC 19 August 2019
Forecast type: FROM: standard forecast or significant change
Winds: from the WSW (240 degrees) at 12 MPH (10 knots; 5.1 m/s)
Visibility: 6 or more miles 10+ km)
Ceiling: 25000 feet AGL
Clouds: few clouds at 1500 feet AGL
scattered clouds at 3000 feet AGL
broken clouds at 25000 feet AGL
Weather: NSW  (no significant weather)
Text: TEMPO 1823/1908 26005KT 3000 BR SCT006
Forecast period: 2300 UTC 18 August 2019 to 0800 UTC 19 August 2019
Forecast type: TEMPORARY: The following changes expected for less than half the time period
Winds: from the W (260 degrees) at 6 MPH (5 knots; 2.6 m/s)
Visibility: 1.86 miles (2.99 km)
Ceiling: at least 12,000 feet AGL
Clouds: scattered clouds at 600 feet AGL
Weather: BR  (mist)
Text: PROB30 1901/1905 VRB03KT 0800 FG BKN003
Forecast period: 0100 to 0500 UTC 19 August 2019
Forecast type: PROBABLE: 30 percent likelihood of the following during this time
Winds: variable direction winds at 3 MPH (3 knots; 1.5 m/s)
Visibility: 0.50 miles (0.80 km)
Ceiling: 300 feet AGL
Clouds: broken clouds at 300 feet AGL
Weather: FG  (fog)
Text: TEMPO 1908/1917 21015G25KT 9999 NSW SCT025 BKN050 CANCEL BY ETGL
Forecast period: 0800 to 1700 UTC 19 August 2019
Forecast type: TEMPORARY: The following changes expected for less than half the time period
Winds: from the SSW (210 degrees) at 17 MPH (15 knots; 7.7 m/s)
gusting to 29 MPH (25 knots; 12.9 m/s)
Visibility: 6 or more miles 10+ km)
Ceiling: 5000 feet AGL
Clouds: scattered clouds at 2500 feet AGL
broken clouds at 5000 feet AGL
Weather: NSW  (no significant weather)